sensor_id;sensor_type;location;lat;lon;timestamp;temperature;humidity
51500;DHT22;39101;53.478;6.158;2022-08-21T00:01:11;16.10;99.90
51500;DHT22;39101;53.478;6.158;2022-08-21T00:03:40;16.20;99.90
51500;DHT22;39101;53.478;6.158;2022-08-21T00:06:08;16.20;99.90
51500;DHT22;39101;53.478;6.158;2022-08-21T00:08:34;16.30;99.90
51500;DHT22;39101;53.478;6.158;2022-08-21T00:11:00;16.20;99.90
51500;DHT22;39101;53.478;6.158;2022-08-21T00:13:26;16.10;99.90
51500;DHT22;39101;53.478;6.158;2022-08-21T00:15:52;16.20;99.90
51500;DHT22;39101;53.478;6.158;2022-08-21T00:18:18;16.20;99.90
51500;DHT22;39101;53.478;6.158;2022-08-21T00:20:45;16.30;99.90
51500;DHT22;39101;53.478;6.158;2022-08-21T00:23:12;16.30;99.90
51500;DHT22;39101;53.478;6.158;2022-08-21T00:25:39;16.20;99.90
51500;DHT22;39101;53.478;6.158;2022-08-21T00:28:06;16.20;99.90
51500;DHT22;39101;53.478;6.158;2022-08-21T00:30:33;16.30;99.90
51500;DHT22;39101;53.478;6.158;2022-08-21T00:32:59;16.10;99.90
51500;DHT22;39101;53.478;6.158;2022-08-21T00:35:33;16.20;99.90
51500;DHT22;39101;53.478;6.158;2022-08-21T00:38:00;16.30;99.90
51500;DHT22;39101;53.478;6.158;2022-08-21T00:40:37;16.10;99.90
51500;DHT22;39101;53.478;6.158;2022-08-21T00:43:07;16.20;99.90
51500;DHT22;39101;53.478;6.158;2022-08-21T00:45:33;16.10;99.90
51500;DHT22;39101;53.478;6.158;2022-08-21T00:48:02;16.30;99.90
51500;DHT22;39101;53.478;6.158;2022-08-21T00:50:31;16.20;99.90
51500;DHT22;39101;53.478;6.158;2022-08-21T00:52:58;16.30;99.90
51500;DHT22;39101;53.478;6.158;2022-08-21T00:55:25;16.30;99.90
51500;DHT22;39101;53.478;6.158;2022-08-21T00:57:54;16.10;99.90
51500;DHT22;39101;53.478;6.158;2022-08-21T01:00:28;16.30;99.90
51500;DHT22;39101;53.478;6.158;2022-08-21T01:02:57;16.10;99.90
51500;DHT22;39101;53.478;6.158;2022-08-21T01:05:26;16.30;99.90
51500;DHT22;39101;53.478;6.158;2022-08-21T01:07:54;16.30;99.90
51500;DHT22;39101;53.478;6.158;2022-08-21T01:10:23;16.20;99.90
51500;DHT22;39101;53.478;6.158;2022-08-21T01:12:51;16.30;99.90
51500;DHT22;39101;53.478;6.158;2022-08-21T01:15:18;16.10;99.90
51500;DHT22;39101;53.478;6.158;2022-08-21T01:17:44;16.30;99.90
51500;DHT22;39101;53.478;6.158;2022-08-21T01:20:11;16.20;99.90
51500;DHT22;39101;53.478;6.158;2022-08-21T01:22:40;16.20;99.90
51500;DHT22;39101;53.478;6.158;2022-08-21T01:25:07;16.30;99.90
51500;DHT22;39101;53.478;6.158;2022-08-21T01:27:34;16.30;99.90
51500;DHT22;39101;53.478;6.158;2022-08-21T01:30:24;16.20;99.90
51500;DHT22;39101;53.478;6.158;2022-08-21T01:32:51;16.30;99.90
51500;DHT22;39101;53.478;6.158;2022-08-21T01:35:37;16.30;99.90
51500;DHT22;39101;53.478;6.158;2022-08-21T01:38:07;16.30;99.90
51500;DHT22;39101;53.478;6.158;2022-08-21T01:40:35;16.20;99.90
51500;DHT22;39101;53.478;6.158;2022-08-21T01:43:03;16.20;99.90
51500;DHT22;39101;53.478;6.158;2022-08-21T01:45:33;16.20;99.90
51500;DHT22;39101;53.478;6.158;2022-08-21T01:48:02;16.20;99.90
51500;DHT22;39101;53.478;6.158;2022-08-21T01:50:28;16.20;99.90
51500;DHT22;39101;53.478;6.158;2022-08-21T01:52:54;16.20;99.90
51500;DHT22;39101;53.478;6.158;2022-08-21T01:55:22;16.30;99.90
51500;DHT22;39101;53.478;6.158;2022-08-21T01:57:49;16.20;99.90
51500;DHT22;39101;53.478;6.158;2022-08-21T02:00:18;16.20;99.90
51500;DHT22;39101;53.478;6.158;2022-08-21T02:02:45;16.30;99.90
51500;DHT22;39101;53.478;6.158;2022-08-21T02:05:12;16.30;99.90
51500;DHT22;39101;53.478;6.158;2022-08-21T02:08:01;16.30;99.90
51500;DHT22;39101;53.478;6.158;2022-08-21T02:10:30;16.40;99.90
51500;DHT22;39101;53.478;6.158;2022-08-21T02:12:57;16.30;99.90
51500;DHT22;39101;53.478;6.158;2022-08-21T02:15:43;16.20;99.90
51500;DHT22;39101;53.478;6.158;2022-08-21T02:18:08;16.20;99.90
51500;DHT22;39101;53.478;6.158;2022-08-21T02:20:38;16.30;99.90
51500;DHT22;39101;53.478;6.158;2022-08-21T02:23:10;16.10;99.90
51500;DHT22;39101;53.478;6.158;2022-08-21T02:25:39;16.10;99.90
51500;DHT22;39101;53.478;6.158;2022-08-21T02:28:24;16.10;99.90
51500;DHT22;39101;53.478;6.158;2022-08-21T02:30:51;16.10;99.90
51500;DHT22;39101;53.478;6.158;2022-08-21T02:33:18;16.10;99.90
51500;DHT22;39101;53.478;6.158;2022-08-21T02:35:46;16.10;99.90
51500;DHT22;39101;53.478;6.158;2022-08-21T02:38:14;16.20;99.90
51500;DHT22;39101;53.478;6.158;2022-08-21T02:40:45;16.20;99.90
51500;DHT22;39101;53.478;6.158;2022-08-21T02:43:12;16.00;99.90
51500;DHT22;39101;53.478;6.158;2022-08-21T02:45:40;16.00;99.90
51500;DHT22;39101;53.478;6.158;2022-08-21T02:48:14;16.00;99.90
51500;DHT22;39101;53.478;6.158;2022-08-21T02:50:46;16.00;99.90
51500;DHT22;39101;53.478;6.158;2022-08-21T02:53:15;16.20;99.90
51500;DHT22;39101;53.478;6.158;2022-08-21T02:55:44;16.10;99.90
51500;DHT22;39101;53.478;6.158;2022-08-21T02:58:12;16.00;99.90
51500;DHT22;39101;53.478;6.158;2022-08-21T03:00:39;16.00;99.90
51500;DHT22;39101;53.478;6.158;2022-08-21T03:03:05;16.10;99.90
51500;DHT22;39101;53.478;6.158;2022-08-21T03:05:32;15.90;99.90
51500;DHT22;39101;53.478;6.158;2022-08-21T03:07:59;16.00;99.90
51500;DHT22;39101;53.478;6.158;2022-08-21T03:10:26;15.90;99.90
51500;DHT22;39101;53.478;6.158;2022-08-21T03:12:52;15.90;99.90
51500;DHT22;39101;53.478;6.158;2022-08-21T03:15:21;15.90;99.90
51500;DHT22;39101;53.478;6.158;2022-08-21T03:17:47;15.90;99.90
51500;DHT22;39101;53.478;6.158;2022-08-21T03:20:15;15.90;99.90
51500;DHT22;39101;53.478;6.158;2022-08-21T03:22:43;16.00;99.90
51500;DHT22;39101;53.478;6.158;2022-08-21T03:25:12;15.80;99.90
51500;DHT22;39101;53.478;6.158;2022-08-21T03:27:38;15.80;99.90
51500;DHT22;39101;53.478;6.158;2022-08-21T03:30:06;15.90;99.90
51500;DHT22;39101;53.478;6.158;2022-08-21T03:32:36;15.80;99.90
51500;DHT22;39101;53.478;6.158;2022-08-21T03:35:03;15.80;99.90
51500;DHT22;39101;53.478;6.158;2022-08-21T03:37:29;15.90;99.90
51500;DHT22;39101;53.478;6.158;2022-08-21T03:39:55;15.90;99.90
51500;DHT22;39101;53.478;6.158;2022-08-21T03:42:21;16.00;99.90
51500;DHT22;39101;53.478;6.158;2022-08-21T03:44:47;15.90;99.90
51500;DHT22;39101;53.478;6.158;2022-08-21T03:47:14;15.80;99.90
51500;DHT22;39101;53.478;6.158;2022-08-21T03:49:40;15.90;99.90
51500;DHT22;39101;53.478;6.158;2022-08-21T03:52:06;15.80;99.90
51500;DHT22;39101;53.478;6.158;2022-08-21T03:54:32;15.80;99.90
51500;DHT22;39101;53.478;6.158;2022-08-21T03:56:58;15.80;99.90
51500;DHT22;39101;53.478;6.158;2022-08-21T03:59:26;16.00;99.90
51500;DHT22;39101;53.478;6.158;2022-08-21T04:01:55;15.90;99.90
51500;DHT22;39101;53.478;6.158;2022-08-21T04:04:21;15.90;99.90
51500;DHT22;39101;53.478;6.158;2022-08-21T04:06:47;15.80;99.90
51500;DHT22;39101;53.478;6.158;2022-08-21T04:09:13;15.90;99.90
51500;DHT22;39101;53.478;6.158;2022-08-21T04:11:38;15.90;99.90
51500;DHT22;39101;53.478;6.158;2022-08-21T04:14:04;15.90;99.90
51500;DHT22;39101;53.478;6.158;2022-08-21T04:16:30;15.70;99.90
51500;DHT22;39101;53.478;6.158;2022-08-21T04:18:56;15.80;99.90
51500;DHT22;39101;53.478;6.158;2022-08-21T04:21:23;15.70;99.90
51500;DHT22;39101;53.478;6.158;2022-08-21T04:23:49;15.80;99.90
51500;DHT22;39101;53.478;6.158;2022-08-21T04:26:16;15.60;99.90
51500;DHT22;39101;53.478;6.158;2022-08-21T04:28:42;15.60;99.90
51500;DHT22;39101;53.478;6.158;2022-08-21T04:31:08;15.70;99.90
51500;DHT22;39101;53.478;6.158;2022-08-21T04:33:34;15.70;99.90
51500;DHT22;39101;53.478;6.158;2022-08-21T04:36:00;15.80;99.90
51500;DHT22;39101;53.478;6.158;2022-08-21T04:38:26;15.60;99.90
51500;DHT22;39101;53.478;6.158;2022-08-21T04:40:52;15.70;99.90
51500;DHT22;39101;53.478;6.158;2022-08-21T04:43:20;15.60;99.90
51500;DHT22;39101;53.478;6.158;2022-08-21T04:45:48;15.70;99.90
51500;DHT22;39101;53.478;6.158;2022-08-21T04:48:17;15.70;99.90
51500;DHT22;39101;53.478;6.158;2022-08-21T04:53:20;15.80;99.90
51500;DHT22;39101;53.478;6.158;2022-08-21T04:55:50;15.60;99.90
51500;DHT22;39101;53.478;6.158;2022-08-21T04:58:20;15.70;99.90
51500;DHT22;39101;53.478;6.158;2022-08-21T05:00:52;15.70;99.90
51500;DHT22;39101;53.478;6.158;2022-08-21T05:03:20;15.60;99.90
51500;DHT22;39101;53.478;6.158;2022-08-21T05:05:47;15.80;99.90
51500;DHT22;39101;53.478;6.158;2022-08-21T05:08:16;15.70;99.90
51500;DHT22;39101;53.478;6.158;2022-08-21T05:10:42;15.70;99.90
51500;DHT22;39101;53.478;6.158;2022-08-21T05:13:10;15.60;99.90
51500;DHT22;39101;53.478;6.158;2022-08-21T05:15:38;15.70;99.90
51500;DHT22;39101;53.478;6.158;2022-08-21T05:18:04;15.80;99.90
51500;DHT22;39101;53.478;6.158;2022-08-21T05:20:31;15.80;99.90
51500;DHT22;39101;53.478;6.158;2022-08-21T05:23:00;15.70;99.90
51500;DHT22;39101;53.478;6.158;2022-08-21T05:25:26;15.90;99.90
51500;DHT22;39101;53.478;6.158;2022-08-21T05:27:57;16.00;99.90
51500;DHT22;39101;53.478;6.158;2022-08-21T05:30:23;15.80;99.90
51500;DHT22;39101;53.478;6.158;2022-08-21T05:32:49;16.10;99.90
51500;DHT22;39101;53.478;6.158;2022-08-21T05:35:14;16.00;99.90
51500;DHT22;39101;53.478;6.158;2022-08-21T05:37:40;16.00;99.90
51500;DHT22;39101;53.478;6.158;2022-08-21T05:40:06;16.00;99.90
51500;DHT22;39101;53.478;6.158;2022-08-21T05:42:33;16.00;99.90
51500;DHT22;39101;53.478;6.158;2022-08-21T05:44:59;16.00;99.90
51500;DHT22;39101;53.478;6.158;2022-08-21T05:47:27;16.00;99.90
51500;DHT22;39101;53.478;6.158;2022-08-21T05:49:53;16.10;99.90
51500;DHT22;39101;53.478;6.158;2022-08-21T05:52:21;16.30;99.90
51500;DHT22;39101;53.478;6.158;2022-08-21T05:54:48;16.20;99.90
51500;DHT22;39101;53.478;6.158;2022-08-21T05:57:13;16.20;99.90
51500;DHT22;39101;53.478;6.158;2022-08-21T05:59:39;16.40;99.90
51500;DHT22;39101;53.478;6.158;2022-08-21T06:02:07;16.40;99.90
51500;DHT22;39101;53.478;6.158;2022-08-21T06:04:40;16.90;99.90
51500;DHT22;39101;53.478;6.158;2022-08-21T06:07:08;16.40;99.90
51500;DHT22;39101;53.478;6.158;2022-08-21T06:09:34;16.40;99.90
51500;DHT22;39101;53.478;6.158;2022-08-21T06:12:08;16.50;99.90
51500;DHT22;39101;53.478;6.158;2022-08-21T06:14:35;16.40;99.90
51500;DHT22;39101;53.478;6.158;2022-08-21T06:17:21;16.50;99.90
51500;DHT22;39101;53.478;6.158;2022-08-21T06:19:54;16.60;99.90
51500;DHT22;39101;53.478;6.158;2022-08-21T06:22:21;16.60;99.90
51500;DHT22;39101;53.478;6.158;2022-08-21T06:24:48;16.80;99.90
51500;DHT22;39101;53.478;6.158;2022-08-21T06:27:14;16.80;99.90
51500;DHT22;39101;53.478;6.158;2022-08-21T06:29:40;17.00;99.90
51500;DHT22;39101;53.478;6.158;2022-08-21T06:32:10;17.10;99.90
51500;DHT22;39101;53.478;6.158;2022-08-21T06:34:37;17.20;99.90
51500;DHT22;39101;53.478;6.158;2022-08-21T06:37:07;17.40;99.90
51500;DHT22;39101;53.478;6.158;2022-08-21T06:39:35;17.50;99.90
51500;DHT22;39101;53.478;6.158;2022-08-21T06:42:01;17.60;99.90
51500;DHT22;39101;53.478;6.158;2022-08-21T06:44:27;17.60;99.90
51500;DHT22;39101;53.478;6.158;2022-08-21T06:46:54;17.70;99.90
51500;DHT22;39101;53.478;6.158;2022-08-21T06:49:19;17.60;99.90
51500;DHT22;39101;53.478;6.158;2022-08-21T06:51:45;17.80;99.90
51500;DHT22;39101;53.478;6.158;2022-08-21T06:54:12;17.90;99.90
51500;DHT22;39101;53.478;6.158;2022-08-21T06:56:38;18.00;99.90
51500;DHT22;39101;53.478;6.158;2022-08-21T06:59:05;18.00;99.90
51500;DHT22;39101;53.478;6.158;2022-08-21T07:01:32;18.20;99.90
51500;DHT22;39101;53.478;6.158;2022-08-21T07:03:58;18.30;99.90
51500;DHT22;39101;53.478;6.158;2022-08-21T07:06:24;18.30;99.90
51500;DHT22;39101;53.478;6.158;2022-08-21T07:08:50;18.30;99.90
51500;DHT22;39101;53.478;6.158;2022-08-21T07:11:21;18.40;99.90
51500;DHT22;39101;53.478;6.158;2022-08-21T07:13:48;18.50;99.90
51500;DHT22;39101;53.478;6.158;2022-08-21T07:16:16;18.50;99.90
51500;DHT22;39101;53.478;6.158;2022-08-21T07:18:42;18.60;99.90
51500;DHT22;39101;53.478;6.158;2022-08-21T07:21:08;18.70;99.90
51500;DHT22;39101;53.478;6.158;2022-08-21T07:23:37;18.70;99.90
51500;DHT22;39101;53.478;6.158;2022-08-21T07:26:05;18.90;99.90
51500;DHT22;39101;53.478;6.158;2022-08-21T07:28:33;18.90;99.90
51500;DHT22;39101;53.478;6.158;2022-08-21T07:31:02;19.00;99.90
51500;DHT22;39101;53.478;6.158;2022-08-21T07:33:30;19.00;99.90
51500;DHT22;39101;53.478;6.158;2022-08-21T07:35:56;19.00;99.90
51500;DHT22;39101;53.478;6.158;2022-08-21T07:38:25;19.10;99.90
51500;DHT22;39101;53.478;6.158;2022-08-21T07:40:53;19.20;99.90
51500;DHT22;39101;53.478;6.158;2022-08-21T07:43:20;19.20;99.90
51500;DHT22;39101;53.478;6.158;2022-08-21T07:45:47;19.30;99.90
51500;DHT22;39101;53.478;6.158;2022-08-21T07:48:15;19.40;99.90
51500;DHT22;39101;53.478;6.158;2022-08-21T07:50:42;19.40;99.90
51500;DHT22;39101;53.478;6.158;2022-08-21T07:53:08;19.40;99.90
51500;DHT22;39101;53.478;6.158;2022-08-21T07:55:35;19.50;99.90
51500;DHT22;39101;53.478;6.158;2022-08-21T07:58:03;19.60;99.90
51500;DHT22;39101;53.478;6.158;2022-08-21T08:00:29;19.60;99.90
51500;DHT22;39101;53.478;6.158;2022-08-21T08:02:56;19.60;99.90
51500;DHT22;39101;53.478;6.158;2022-08-21T08:05:29;19.70;99.90
51500;DHT22;39101;53.478;6.158;2022-08-21T08:07:57;19.70;99.90
51500;DHT22;39101;53.478;6.158;2022-08-21T08:10:28;19.80;99.90
51500;DHT22;39101;53.478;6.158;2022-08-21T08:12:54;19.80;99.90
51500;DHT22;39101;53.478;6.158;2022-08-21T08:15:23;19.80;99.90
51500;DHT22;39101;53.478;6.158;2022-08-21T08:17:49;19.80;99.90
51500;DHT22;39101;53.478;6.158;2022-08-21T08:20:16;19.90;99.90
51500;DHT22;39101;53.478;6.158;2022-08-21T08:22:44;19.90;99.90
51500;DHT22;39101;53.478;6.158;2022-08-21T08:25:11;20.00;99.90
51500;DHT22;39101;53.478;6.158;2022-08-21T08:27:40;20.00;99.90
51500;DHT22;39101;53.478;6.158;2022-08-21T08:30:08;20.10;99.90
51500;DHT22;39101;53.478;6.158;2022-08-21T08:32:37;20.10;99.90
51500;DHT22;39101;53.478;6.158;2022-08-21T08:35:05;20.20;99.90
51500;DHT22;39101;53.478;6.158;2022-08-21T08:37:34;20.20;99.90
51500;DHT22;39101;53.478;6.158;2022-08-21T08:40:04;20.30;99.90
51500;DHT22;39101;53.478;6.158;2022-08-21T08:42:35;20.30;99.90
51500;DHT22;39101;53.478;6.158;2022-08-21T08:45:14;20.40;99.90
51500;DHT22;39101;53.478;6.158;2022-08-21T08:47:49;20.50;99.90
51500;DHT22;39101;53.478;6.158;2022-08-21T08:50:21;20.50;99.90
51500;DHT22;39101;53.478;6.158;2022-08-21T08:52:58;20.60;99.90
51500;DHT22;39101;53.478;6.158;2022-08-21T08:55:45;20.60;99.90
51500;DHT22;39101;53.478;6.158;2022-08-21T09:00:47;20.60;99.90
51500;DHT22;39101;53.478;6.158;2022-08-21T09:03:15;20.70;99.90
51500;DHT22;39101;53.478;6.158;2022-08-21T09:11:38;20.60;99.90
51500;DHT22;39101;53.478;6.158;2022-08-21T09:20:23;20.10;99.90
51500;DHT22;39101;53.478;6.158;2022-08-21T09:28:16;19.90;99.90
51500;DHT22;39101;53.478;6.158;2022-08-21T09:30:42;19.80;99.90
51500;DHT22;39101;53.478;6.158;2022-08-21T09:33:12;19.70;99.90
51500;DHT22;39101;53.478;6.158;2022-08-21T09:35:48;19.70;99.90
51500;DHT22;39101;53.478;6.158;2022-08-21T09:38:31;19.70;99.90
51500;DHT22;39101;53.478;6.158;2022-08-21T09:41:01;19.80;99.90
51500;DHT22;39101;53.478;6.158;2022-08-21T09:43:52;19.90;99.90
51500;DHT22;39101;53.478;6.158;2022-08-21T09:46:26;20.10;99.90
51500;DHT22;39101;53.478;6.158;2022-08-21T09:48:55;20.20;99.90
51500;DHT22;39101;53.478;6.158;2022-08-21T09:51:30;20.30;99.90
51500;DHT22;39101;53.478;6.158;2022-08-21T09:56:37;20.20;99.90
51500;DHT22;39101;53.478;6.158;2022-08-21T09:59:33;20.30;99.90
51500;DHT22;39101;53.478;6.158;2022-08-21T10:04:56;20.50;99.90
51500;DHT22;39101;53.478;6.158;2022-08-21T10:07:27;20.70;99.90
51500;DHT22;39101;53.478;6.158;2022-08-21T10:12:50;20.70;99.90
51500;DHT22;39101;53.478;6.158;2022-08-21T10:29:18;20.60;99.90
51500;DHT22;39101;53.478;6.158;2022-08-21T10:35:14;20.80;99.90
51500;DHT22;39101;53.478;6.158;2022-08-21T10:48:57;20.90;99.90
51500;DHT22;39101;53.478;6.158;2022-08-21T10:54:26;20.90;99.90
51500;DHT22;39101;53.478;6.158;2022-08-21T10:57:03;21.00;99.90
51500;DHT22;39101;53.478;6.158;2022-08-21T10:59:42;21.00;99.90
51500;DHT22;39101;53.478;6.158;2022-08-21T11:02:27;21.00;99.90
51500;DHT22;39101;53.478;6.158;2022-08-21T11:05:05;21.00;99.90
51500;DHT22;39101;53.478;6.158;2022-08-21T11:07:36;21.00;99.90
51500;DHT22;39101;53.478;6.158;2022-08-21T11:10:21;21.00;99.90
51500;DHT22;39101;53.478;6.158;2022-08-21T11:13:00;21.00;99.90
51500;DHT22;39101;53.478;6.158;2022-08-21T11:16:00;21.00;99.90
51500;DHT22;39101;53.478;6.158;2022-08-21T11:18:55;21.00;99.90
51500;DHT22;39101;53.478;6.158;2022-08-21T11:27:16;21.00;99.90
51500;DHT22;39101;53.478;6.158;2022-08-21T11:29:39;21.10;99.90
51500;DHT22;39101;53.478;6.158;2022-08-21T11:32:34;21.10;99.90
51500;DHT22;39101;53.478;6.158;2022-08-21T11:45:56;21.50;99.90
51500;DHT22;39101;53.478;6.158;2022-08-21T11:51:12;21.60;99.90
51500;DHT22;39101;53.478;6.158;2022-08-21T11:56:23;21.60;99.90
51500;DHT22;39101;53.478;6.158;2022-08-21T11:58:56;21.60;99.90
51500;DHT22;39101;53.478;6.158;2022-08-21T12:01:36;21.60;99.90
51500;DHT22;39101;53.478;6.158;2022-08-21T12:04:42;21.70;99.90
51500;DHT22;39101;53.478;6.158;2022-08-21T12:07:16;21.70;99.90
51500;DHT22;39101;53.478;6.158;2022-08-21T12:09:54;21.60;99.90
51500;DHT22;39101;53.478;6.158;2022-08-21T12:12:36;21.70;99.90
51500;DHT22;39101;53.478;6.158;2022-08-21T12:15:23;21.70;99.90
51500;DHT22;39101;53.478;6.158;2022-08-21T12:26:48;21.30;99.90
51500;DHT22;39101;53.478;6.158;2022-08-21T12:28:36;21.40;99.90
51500;DHT22;39101;53.478;6.158;2022-08-21T12:31:05;21.40;99.90
51500;DHT22;39101;53.478;6.158;2022-08-21T12:33:49;21.40;99.90
51500;DHT22;39101;53.478;6.158;2022-08-21T12:36:19;21.40;99.90
51500;DHT22;39101;53.478;6.158;2022-08-21T12:38:56;21.40;99.90
51500;DHT22;39101;53.478;6.158;2022-08-21T12:42:06;21.30;99.90
51500;DHT22;39101;53.478;6.158;2022-08-21T12:44:38;21.30;99.90
51500;DHT22;39101;53.478;6.158;2022-08-21T12:47:15;21.30;99.90
51500;DHT22;39101;53.478;6.158;2022-08-21T12:49:56;21.40;99.90
51500;DHT22;39101;53.478;6.158;2022-08-21T12:52:40;21.30;99.90
51500;DHT22;39101;53.478;6.158;2022-08-21T12:55:24;21.30;99.90
51500;DHT22;39101;53.478;6.158;2022-08-21T12:57:53;21.40;99.90
51500;DHT22;39101;53.478;6.158;2022-08-21T13:00:22;21.40;99.90
51500;DHT22;39101;53.478;6.158;2022-08-21T13:02:50;21.40;99.90
51500;DHT22;39101;53.478;6.158;2022-08-21T13:05:35;21.30;99.90
51500;DHT22;39101;53.478;6.158;2022-08-21T13:08:07;21.30;99.90
51500;DHT22;39101;53.478;6.158;2022-08-21T13:10:36;21.30;99.90
51500;DHT22;39101;53.478;6.158;2022-08-21T13:13:06;21.30;99.90
51500;DHT22;39101;53.478;6.158;2022-08-21T13:15:35;21.20;99.90
51500;DHT22;39101;53.478;6.158;2022-08-21T13:18:05;21.30;99.90
51500;DHT22;39101;53.478;6.158;2022-08-21T13:20:36;21.30;99.90
51500;DHT22;39101;53.478;6.158;2022-08-21T13:23:23;21.30;99.90
51500;DHT22;39101;53.478;6.158;2022-08-21T13:25:49;21.20;99.90
51500;DHT22;39101;53.478;6.158;2022-08-21T13:28:15;21.20;99.90
51500;DHT22;39101;53.478;6.158;2022-08-21T13:30:54;21.20;99.90
51500;DHT22;39101;53.478;6.158;2022-08-21T13:33:24;21.20;99.90
51500;DHT22;39101;53.478;6.158;2022-08-21T13:36:18;21.30;99.90
51500;DHT22;39101;53.478;6.158;2022-08-21T13:38:50;21.20;99.90
51500;DHT22;39101;53.478;6.158;2022-08-21T13:41:24;21.20;99.90
51500;DHT22;39101;53.478;6.158;2022-08-21T13:44:15;21.20;99.90
51500;DHT22;39101;53.478;6.158;2022-08-21T13:46:44;21.20;99.90
51500;DHT22;39101;53.478;6.158;2022-08-21T13:49:14;21.10;99.90
51500;DHT22;39101;53.478;6.158;2022-08-21T13:51:41;21.20;99.90
51500;DHT22;39101;53.478;6.158;2022-08-21T13:54:25;21.20;99.90
51500;DHT22;39101;53.478;6.158;2022-08-21T13:56:54;21.20;99.90
51500;DHT22;39101;53.478;6.158;2022-08-21T13:59:34;21.30;99.90
51500;DHT22;39101;53.478;6.158;2022-08-21T14:04:38;21.30;99.90
51500;DHT22;39101;53.478;6.158;2022-08-21T14:07:31;21.30;99.90
51500;DHT22;39101;53.478;6.158;2022-08-21T14:10:11;21.30;99.90
51500;DHT22;39101;53.478;6.158;2022-08-21T14:13:04;21.30;99.90
51500;DHT22;39101;53.478;6.158;2022-08-21T14:15:33;21.10;99.90
51500;DHT22;39101;53.478;6.158;2022-08-21T14:18:17;21.10;99.90
51500;DHT22;39101;53.478;6.158;2022-08-21T14:20:44;21.10;99.90
51500;DHT22;39101;53.478;6.158;2022-08-21T14:23:24;21.20;99.90
51500;DHT22;39101;53.478;6.158;2022-08-21T14:25:58;21.30;99.90
51500;DHT22;39101;53.478;6.158;2022-08-21T14:28:31;21.30;99.90
51500;DHT22;39101;53.478;6.158;2022-08-21T14:31:20;21.20;99.90
51500;DHT22;39101;53.478;6.158;2022-08-21T14:33:45;21.10;99.90
51500;DHT22;39101;53.478;6.158;2022-08-21T14:36:13;21.20;99.90
51500;DHT22;39101;53.478;6.158;2022-08-21T14:38:40;21.00;99.90
51500;DHT22;39101;53.478;6.158;2022-08-21T14:41:23;21.00;99.90
51500;DHT22;39101;53.478;6.158;2022-08-21T14:43:49;21.10;99.90
51500;DHT22;39101;53.478;6.158;2022-08-21T14:46:25;21.10;99.90
51500;DHT22;39101;53.478;6.158;2022-08-21T14:48:52;21.10;99.90
51500;DHT22;39101;53.478;6.158;2022-08-21T14:51:20;20.90;99.90
51500;DHT22;39101;53.478;6.158;2022-08-21T14:53:46;21.00;99.90
51500;DHT22;39101;53.478;6.158;2022-08-21T14:56:15;20.80;99.90
51500;DHT22;39101;53.478;6.158;2022-08-21T14:58:48;20.90;99.90
51500;DHT22;39101;53.478;6.158;2022-08-21T15:01:17;21.00;99.90
51500;DHT22;39101;53.478;6.158;2022-08-21T15:03:44;21.00;99.90
51500;DHT22;39101;53.478;6.158;2022-08-21T15:06:12;21.00;99.90
51500;DHT22;39101;53.478;6.158;2022-08-21T15:08:38;21.10;99.90
51500;DHT22;39101;53.478;6.158;2022-08-21T15:11:05;21.20;99.90
51500;DHT22;39101;53.478;6.158;2022-08-21T15:13:31;21.20;99.90
51500;DHT22;39101;53.478;6.158;2022-08-21T15:15:58;21.10;99.90
51500;DHT22;39101;53.478;6.158;2022-08-21T15:18:26;21.10;99.90
51500;DHT22;39101;53.478;6.158;2022-08-21T15:20:53;21.20;99.90
51500;DHT22;39101;53.478;6.158;2022-08-21T15:23:19;21.10;99.90
51500;DHT22;39101;53.478;6.158;2022-08-21T15:25:47;21.10;99.90
51500;DHT22;39101;53.478;6.158;2022-08-21T15:28:14;21.00;99.90
51500;DHT22;39101;53.478;6.158;2022-08-21T15:30:43;21.10;99.90
51500;DHT22;39101;53.478;6.158;2022-08-21T15:33:10;21.10;99.90
51500;DHT22;39101;53.478;6.158;2022-08-21T15:35:36;21.00;99.90
51500;DHT22;39101;53.478;6.158;2022-08-21T15:38:07;21.00;99.90
51500;DHT22;39101;53.478;6.158;2022-08-21T15:40:34;21.10;99.90
51500;DHT22;39101;53.478;6.158;2022-08-21T15:43:03;21.00;99.90
51500;DHT22;39101;53.478;6.158;2022-08-21T15:45:29;21.00;99.90
51500;DHT22;39101;53.478;6.158;2022-08-21T15:47:55;21.00;99.90
51500;DHT22;39101;53.478;6.158;2022-08-21T15:50:23;21.00;99.90
51500;DHT22;39101;53.478;6.158;2022-08-21T15:52:50;20.90;99.90
51500;DHT22;39101;53.478;6.158;2022-08-21T15:55:15;21.00;99.90
51500;DHT22;39101;53.478;6.158;2022-08-21T15:57:49;21.00;99.90
51500;DHT22;39101;53.478;6.158;2022-08-21T16:00:36;21.10;99.90
51500;DHT22;39101;53.478;6.158;2022-08-21T16:03:04;21.00;99.90
51500;DHT22;39101;53.478;6.158;2022-08-21T16:05:32;20.90;99.90
51500;DHT22;39101;53.478;6.158;2022-08-21T16:07:57;20.80;99.90
51500;DHT22;39101;53.478;6.158;2022-08-21T16:10:24;20.80;99.90
51500;DHT22;39101;53.478;6.158;2022-08-21T16:12:56;20.70;99.90
51500;DHT22;39101;53.478;6.158;2022-08-21T16:15:23;20.70;99.90
51500;DHT22;39101;53.478;6.158;2022-08-21T16:17:49;20.60;99.90
51500;DHT22;39101;53.478;6.158;2022-08-21T16:20:23;20.40;99.90
51500;DHT22;39101;53.478;6.158;2022-08-21T16:22:50;20.50;99.90
51500;DHT22;39101;53.478;6.158;2022-08-21T16:25:17;20.40;99.90
51500;DHT22;39101;53.478;6.158;2022-08-21T16:27:46;20.40;99.90
51500;DHT22;39101;53.478;6.158;2022-08-21T16:30:14;20.30;99.90
51500;DHT22;39101;53.478;6.158;2022-08-21T16:32:42;20.40;99.90
51500;DHT22;39101;53.478;6.158;2022-08-21T16:35:13;20.40;99.90
51500;DHT22;39101;53.478;6.158;2022-08-21T16:37:44;20.30;99.90
51500;DHT22;39101;53.478;6.158;2022-08-21T16:40:11;20.40;99.90
51500;DHT22;39101;53.478;6.158;2022-08-21T16:42:38;20.40;99.90
51500;DHT22;39101;53.478;6.158;2022-08-21T16:45:11;20.30;99.90
51500;DHT22;39101;53.478;6.158;2022-08-21T16:47:39;20.40;99.90
51500;DHT22;39101;53.478;6.158;2022-08-21T16:50:06;20.30;99.90
51500;DHT22;39101;53.478;6.158;2022-08-21T16:52:33;20.40;99.90
51500;DHT22;39101;53.478;6.158;2022-08-21T16:55:00;20.40;99.90
51500;DHT22;39101;53.478;6.158;2022-08-21T16:57:27;20.40;99.90
51500;DHT22;39101;53.478;6.158;2022-08-21T16:59:52;20.30;99.90
51500;DHT22;39101;53.478;6.158;2022-08-21T17:02:48;20.40;99.90
51500;DHT22;39101;53.478;6.158;2022-08-21T17:05:15;20.20;99.90
51500;DHT22;39101;53.478;6.158;2022-08-21T17:07:42;20.20;99.90
51500;DHT22;39101;53.478;6.158;2022-08-21T17:10:10;20.20;99.90
51500;DHT22;39101;53.478;6.158;2022-08-21T17:12:37;20.20;99.90
51500;DHT22;39101;53.478;6.158;2022-08-21T17:15:17;20.10;99.90
51500;DHT22;39101;53.478;6.158;2022-08-21T17:17:44;20.00;99.90
51500;DHT22;39101;53.478;6.158;2022-08-21T17:20:12;20.10;99.90
51500;DHT22;39101;53.478;6.158;2022-08-21T17:22:39;20.10;99.90
51500;DHT22;39101;53.478;6.158;2022-08-21T17:25:05;20.10;99.90